This is the latest recevied weather packets stored in our database for station/object EA5HRE-13. If no packets are shown the sender has not sent any weather packets the latest 10 day(s).
| Time | Temp. | Humidity | Pressure | Rain* | Wind** | Luminosity | Snow |
|---|---|---|---|---|---|---|---|
| 1788009618 | 30.56° C | 40% | 1018.2 hPa | 0 mm | - | - | - |
| 1788008716 | 30.56° C | 39% | 1018.3 hPa | 0 mm | - | - | - |
| 1788007815 | 30.56° C | 38% | 1018.4 hPa | 0 mm | - | - | - |
| 1788006915 | 30.56° C | 37% | 1018.4 hPa | 0 mm | - | - | - |
| 1788006014 | 30.56° C | 35% | 1018.3 hPa | 0 mm | - | - | - |
| 1788005112 | 30.56° C | 34% | 1018.4 hPa | 0 mm | - | - | - |
| 1788004211 | 30° C | 38% | 1018.7 hPa | 0 mm | - | - | - |
| 1788003310 | 29.44° C | 37% | 1018.9 hPa | 0 mm | - | - | - |
| 1788002410 | 29.44° C | 36% | 1019.1 hPa | 0 mm | - | - | - |
| 1788001509 | 29.44° C | 35% | 1019.3 hPa | 0 mm | - | - | - |
| 1788000608 | 28.89° C | 35% | 1019.4 hPa | 0 mm | - | - | - |
| 1787999707 | 28.89° C | 35% | 1019.5 hPa | 0 mm | - | - | - |
| 1787998806 | 28.33° C | 36% | 1019.6 hPa | 0 mm | - | - | - |
| 1787997904 | 27.78° C | 37% | 1019.7 hPa | 0 mm | - | - | - |
| 1787997005 | 27.22° C | 38% | 1019.8 hPa | 0 mm | - | - | - |
| 1787996103 | 27.22° C | 40% | 1019.7 hPa | 0 mm | - | - | - |
| 1787995195 | 26.67° C | 42% | 1019.8 hPa | 0 mm | - | - | - |
| 1787995160 | 26.67° C | 42% | 1019.8 hPa | 0 mm | - | - | - |
| 1787994890 | 26.11° C | 44% | 1019.8 hPa | 0 mm | - | - | - |
| 1787994426 | 26.11° C | 44% | 1019.8 hPa | 0 mm | - | - | - |
| 1787994241 | 26.11° C | 44% | 1019.8 hPa | 0 mm | - | - | - |
| 1787992793 | 25° C | 49% | 1019.6 hPa | 0 mm | - | - | - |
| 1787991892 | 24.44° C | 52% | 1019.4 hPa | 0 mm | - | - | - |
| 1787990993 | 23.89° C | 55% | 1019.2 hPa | 0 mm | - | - | - |
| 1787990092 | 22.78° C | 59% | 1019 hPa | 0 mm | - | - | - |
* Rain latest hour (hover to see other rain measurements)
** Current wind speed in m/s (hover to see current wind gust speed)